Time,TemperatureC,DewpointC,PressurehPa,WindDirection,WindDirectionDegrees,WindSpeedKMH,WindSpeedGustKMH,Humidity,HourlyPrecipMM,Conditions,Clouds,dailyrainMM,SolarRadiationWatts/m^2,UVIndex,SoftwareType,DateUTC
2021-06-13 00:03:30,14.4,12.2,1020.9,NNW,327,2.9,3.5,63.8,0.0,,,0.0,2,0,n/a,2021-06-12T22:03:30Z
2021-06-13 00:09:30,14.2,12,1021.2,NNW,337,11.9,14.7,63.7,0.0,,,0.0,0,0,n/a,2021-06-12T22:09:30Z
2021-06-13 00:12:31,13.9,12.2,1021.2,NNW,337,4.3,5,64.5,0.0,,,0.0,0,0,n/a,2021-06-12T22:12:31Z
2021-06-13 00:18:30,14,12.1,1021.2,NW,309,5.8,7.3,64.4,0.0,,,0.0,0,0,n/a,2021-06-12T22:18:30Z
2021-06-13 00:24:30,14,12,1021.2,NNW,342,7.3,9.9,64.3,0.0,,,0.0,2,0,n/a,2021-06-12T22:24:30Z
2021-06-13 00:27:31,14,12.1,1021.2,NNW,337,8.7,9.3,64.9,0.0,,,0.0,0,0,n/a,2021-06-12T22:27:31Z
2021-06-13 00:33:30,13.8,12,1021.2,NNW,345,5.9,8.5,65,0.0,,,0.0,2,0,n/a,2021-06-12T22:33:30Z
2021-06-13 00:39:30,13.9,11.9,1021.2,NNW,337,7.9,13.2,65.1,0.0,,,0.0,0,0,n/a,2021-06-12T22:39:30Z
2021-06-13 00:42:26,13.9,11.9,1021.2,NW,315,5.1,5.2,65.5,0.0,,,0.0,0,0,n/a,2021-06-12T22:42:26Z
2021-06-13 00:48:30,13.8,12,1021.2,NNW,328,7.1,9.1,65.6,0.0,,,0.0,0,0,n/a,2021-06-12T22:48:30Z
2021-06-13 00:54:30,13.5,11.9,1021.5,NW,312,4.4,5.3,65.9,0.0,,,0.0,2,0,n/a,2021-06-12T22:54:30Z
2021-06-13 00:57:30,13.4,11.9,1021.5,NW,315,8.1,8.6,65.8,0.0,,,0.0,0,0,n/a,2021-06-12T22:57:30Z
2021-06-13 01:03:31,13.3,11.8,1021.5,NNW,348,4.6,6.1,66,0.0,,,0.0,0,0,n/a,2021-06-12T23:03:31Z
2021-06-13 01:09:31,13.5,11.7,1021.5,North,349,8.1,10.6,66.1,0.0,,,0.0,2,0,n/a,2021-06-12T23:09:31Z
2021-06-13 01:18:30,13.3,11.6,1021.7,NNW,329,3.3,5.1,65.9,0.0,,,0.0,2,0,n/a,2021-06-12T23:18:30Z
2021-06-13 01:24:26,12.9,11.6,1021.7,WNW,283,3.9,4.6,66.1,0.0,,,0.0,2,0,n/a,2021-06-12T23:24:26Z
2021-06-13 01:27:31,13,11.4,1021.7,NNW,337,2.4,2.6,65.7,0.0,,,0.0,2,0,n/a,2021-06-12T23:27:31Z
2021-06-13 01:33:26,12.6,11.5,1021.7,North,0,0,0,66.5,0.0,,,0.0,0,0,n/a,2021-06-12T23:33:26Z
2021-06-13 01:39:30,11.8,11.9,1021.7,SSE,157,0.2,0.7,69.5,0.0,,,0.0,2,0,n/a,2021-06-12T23:39:30Z
2021-06-13 01:42:31,11.4,12,1022.0,SSE,157,0,0,70.8,0.0,,,0.0,2,0,n/a,2021-06-12T23:42:31Z
2021-06-13 01:48:31,10.9,11.8,1022.0,SSE,157,0,0,71,0.0,,,0.0,2,0,n/a,2021-06-12T23:48:31Z
2021-06-13 01:54:31,10.6,11.7,1022.2,SE,135,2,4,71.3,0.0,,,0.0,0,0,n/a,2021-06-12T23:54:31Z
2021-06-13 01:57:27,10.6,11.6,1022.0,SE,135,0,0,71.3,0.0,,,0.0,0,0,n/a,2021-06-12T23:57:27Z
2021-06-13 02:03:31,10.3,11.4,1022.2,SE,135,0,0,71.4,0.0,,,0.0,0,0,n/a,2021-06-13T00:03:31Z
2021-06-13 02:09:31,9.9,11.3,1022.2,East,90,0,0,72.1,0.0,,,0.0,2,0,n/a,2021-06-13T00:09:31Z
2021-06-13 02:12:30,9.8,11.2,1022.2,NE,45,0,0,72.4,0.0,,,0.0,2,0,n/a,2021-06-13T00:12:30Z
2021-06-13 02:18:27,9.6,11.2,1022.2,ESE,112,0.6,1.9,72.9,0.0,,,0.0,0,0,n/a,2021-06-13T00:18:27Z
2021-06-13 02:24:31,9.6,11.1,1022.2,ENE,67,0,0,73.5,0.0,,,0.0,2,0,n/a,2021-06-13T00:24:31Z
2021-06-13 02:27:30,9.7,11.1,1022.2,ENE,67,0,0,73.4,0.0,,,0.0,0,0,n/a,2021-06-13T00:27:30Z
2021-06-13 02:33:27,9.7,10.9,1022.5,ESE,112,0,0,73.4,0.0,,,0.0,0,0,n/a,2021-06-13T00:33:27Z
2021-06-13 02:39:30,9.7,11,1022.8,NNW,337,0,0,73.7,0.0,,,0.0,2,0,n/a,2021-06-13T00:39:30Z
2021-06-13 02:42:31,9.6,11,1022.8,NNW,337,0,0,73.6,0.0,,,0.0,0,0,n/a,2021-06-13T00:42:31Z
2021-06-13 02:48:31,9.4,10.9,1022.8,North,0,0,0,73.9,0.0,,,0.0,2,0,n/a,2021-06-13T00:48:31Z
2021-06-13 02:54:31,9.4,10.8,1022.8,ESE,112,0,0,74,0.0,,,0.0,2,0,n/a,2021-06-13T00:54:31Z
2021-06-13 02:57:31,9.3,10.8,1022.8,ESE,112,0,0,74.1,0.0,,,0.0,0,0,n/a,2021-06-13T00:57:31Z
2021-06-13 03:03:31,9.3,10.8,1022.8,East,88,1.7,2,74.8,0.0,,,0.0,2,0,n/a,2021-06-13T01:03:31Z
2021-06-13 03:09:27,9.4,10.7,1022.8,East,90,0,0,74.8,0.0,,,0.0,2,0,n/a,2021-06-13T01:09:27Z
2021-06-13 03:12:30,9.7,10.7,1022.8,North,11,4.7,4.9,75.1,0.0,,,0.0,0,0,n/a,2021-06-13T01:12:30Z
2021-06-13 03:18:26,9.8,10.7,1022.8,ENE,67,0.4,1.2,75.1,0.0,,,0.0,2,0,n/a,2021-06-13T01:18:26Z
2021-06-13 03:24:30,10.4,10.8,1022.8,ESE,112,4.5,6,75.3,0.0,,,0.0,2,0,n/a,2021-06-13T01:24:30Z
2021-06-13 03:27:31,10.7,10.7,1022.8,East,90,1.9,2,74.7,0.0,,,0.0,0,0,n/a,2021-06-13T01:27:31Z
2021-06-13 03:33:31,10.7,10.8,1022.8,East,100,1.5,3.3,74.5,0.0,,,0.0,2,0,n/a,2021-06-13T01:33:31Z
2021-06-13 03:39:31,10.9,10.8,1022.8,ENE,67,0,0,74.5,0.0,,,0.0,2,0,n/a,2021-06-13T01:39:31Z
2021-06-13 03:42:30,10.8,10.9,1022.8,East,90,0,0,74.6,0.0,,,0.0,2,0,n/a,2021-06-13T01:42:30Z
2021-06-13 03:48:27,10.8,10.8,1022.8,NNW,337,1,2.1,74.3,0.0,,,0.0,2,0,n/a,2021-06-13T01:48:27Z
2021-06-13 03:54:31,10.5,10.7,1022.8,NNE,22,0,0,73.8,0.0,,,0.0,0,0,n/a,2021-06-13T01:54:31Z
2021-06-13 03:57:30,10.3,10.7,1022.8,NNE,22,0,0,74.2,0.0,,,0.0,0,0,n/a,2021-06-13T01:57:30Z
2021-06-13 04:03:30,10.2,10.9,1023.0,ENE,67,0,0,74.9,0.0,,,0.0,2,0,n/a,2021-06-13T02:03:30Z
2021-06-13 04:09:31,10.2,10.9,1022.8,North,0,0,0,75.2,0.0,,,0.0,2,0,n/a,2021-06-13T02:09:31Z
2021-06-13 04:12:26,10,11,1023.0,ENE,67,0,0,75.7,0.0,,,0.0,2,0,n/a,2021-06-13T02:12:26Z
2021-06-13 04:18:30,10,10.9,1022.8,NNE,22,0,0,75.5,0.0,,,0.0,2,0,n/a,2021-06-13T02:18:30Z
2021-06-13 04:24:31,9.8,10.8,1023.0,NNW,337,0,0,75.6,0.0,,,0.0,2,0,n/a,2021-06-13T02:24:31Z
2021-06-13 04:27:30,9.8,10.7,1023.0,NW,315,0,0,75.4,0.0,,,0.0,2,0,n/a,2021-06-13T02:27:30Z
2021-06-13 04:33:26,9.8,10.8,1023.3,NNW,337,0,0,76.1,0.0,,,0.0,2,0,n/a,2021-06-13T02:33:26Z
2021-06-13 04:39:30,9.6,10.9,1023.3,ESE,112,0,0,77.1,0.0,,,0.0,2,0,n/a,2021-06-13T02:39:30Z
2021-06-13 04:42:27,9.5,10.8,1023.0,ESE,112,0,0,76.8,0.0,,,0.0,2,0,n/a,2021-06-13T02:42:27Z